sensor_id;sensor_type;location;lat;lon;timestamp;temperature;humidity
51902;DHT22;37929;53.218;6.548;2023-03-14T00:00:36;9.80;99.90
51902;DHT22;37929;53.218;6.548;2023-03-14T00:03:02;9.80;99.90
51902;DHT22;37929;53.218;6.548;2023-03-14T00:05:28;9.80;99.90
51902;DHT22;37929;53.218;6.548;2023-03-14T00:07:54;9.90;99.90
51902;DHT22;37929;53.218;6.548;2023-03-14T00:10:20;9.90;99.90
51902;DHT22;37929;53.218;6.548;2023-03-14T00:12:46;9.90;99.90
51902;DHT22;37929;53.218;6.548;2023-03-14T00:15:11;9.90;99.90
51902;DHT22;37929;53.218;6.548;2023-03-14T00:17:38;10.00;99.90
51902;DHT22;37929;53.218;6.548;2023-03-14T00:20:05;10.10;99.90
51902;DHT22;37929;53.218;6.548;2023-03-14T00:22:37;10.20;99.90
51902;DHT22;37929;53.218;6.548;2023-03-14T00:25:05;10.20;99.90
51902;DHT22;37929;53.218;6.548;2023-03-14T00:27:32;10.30;99.90
51902;DHT22;37929;53.218;6.548;2023-03-14T00:29:58;10.30;99.90
51902;DHT22;37929;53.218;6.548;2023-03-14T00:32:24;10.30;99.90
51902;DHT22;37929;53.218;6.548;2023-03-14T00:34:50;10.20;99.90
51902;DHT22;37929;53.218;6.548;2023-03-14T00:37:15;10.30;99.90
51902;DHT22;37929;53.218;6.548;2023-03-14T00:39:41;10.30;99.90
51902;DHT22;37929;53.218;6.548;2023-03-14T00:42:07;10.30;99.90
51902;DHT22;37929;53.218;6.548;2023-03-14T00:44:33;10.20;99.90
51902;DHT22;37929;53.218;6.548;2023-03-14T00:46:59;10.30;99.90
51902;DHT22;37929;53.218;6.548;2023-03-14T00:49:24;10.30;99.90
51902;DHT22;37929;53.218;6.548;2023-03-14T00:51:50;10.30;99.90
51902;DHT22;37929;53.218;6.548;2023-03-14T00:54:17;10.30;99.90
51902;DHT22;37929;53.218;6.548;2023-03-14T00:56:43;10.30;99.90
51902;DHT22;37929;53.218;6.548;2023-03-14T00:59:09;10.30;99.90
51902;DHT22;37929;53.218;6.548;2023-03-14T01:01:35;10.30;99.90
51902;DHT22;37929;53.218;6.548;2023-03-14T01:04:01;10.30;99.90
51902;DHT22;37929;53.218;6.548;2023-03-14T01:06:28;10.30;99.90
51902;DHT22;37929;53.218;6.548;2023-03-14T01:08:55;10.30;99.90
51902;DHT22;37929;53.218;6.548;2023-03-14T01:11:23;10.30;99.90
51902;DHT22;37929;53.218;6.548;2023-03-14T01:13:50;10.30;99.90
51902;DHT22;37929;53.218;6.548;2023-03-14T01:16:17;10.30;99.90
51902;DHT22;37929;53.218;6.548;2023-03-14T01:18:45;10.30;99.90
51902;DHT22;37929;53.218;6.548;2023-03-14T01:21:17;10.30;99.90
51902;DHT22;37929;53.218;6.548;2023-03-14T01:23:44;10.40;99.90
51902;DHT22;37929;53.218;6.548;2023-03-14T01:26:16;10.40;99.90
51902;DHT22;37929;53.218;6.548;2023-03-14T01:28:42;10.50;99.90
51902;DHT22;37929;53.218;6.548;2023-03-14T01:31:09;10.50;99.90
51902;DHT22;37929;53.218;6.548;2023-03-14T01:33:36;10.50;99.90
51902;DHT22;37929;53.218;6.548;2023-03-14T01:36:02;10.50;99.90
51902;DHT22;37929;53.218;6.548;2023-03-14T01:38:29;10.60;99.90
51902;DHT22;37929;53.218;6.548;2023-03-14T01:40:56;10.50;99.90
51902;DHT22;37929;53.218;6.548;2023-03-14T01:43:22;10.60;99.90
51902;DHT22;37929;53.218;6.548;2023-03-14T01:54:11;10.60;99.90
51902;DHT22;37929;53.218;6.548;2023-03-14T01:56:41;10.60;99.90
51902;DHT22;37929;53.218;6.548;2023-03-14T01:59:10;10.50;99.90
51902;DHT22;37929;53.218;6.548;2023-03-14T02:01:36;10.50;99.90
51902;DHT22;37929;53.218;6.548;2023-03-14T02:04:04;10.40;99.90
51902;DHT22;37929;53.218;6.548;2023-03-14T02:06:39;10.40;99.90
51902;DHT22;37929;53.218;6.548;2023-03-14T02:09:06;10.30;99.90
51902;DHT22;37929;53.218;6.548;2023-03-14T02:11:32;10.30;99.90
51902;DHT22;37929;53.218;6.548;2023-03-14T02:13:59;10.30;99.90
51902;DHT22;37929;53.218;6.548;2023-03-14T02:16:26;10.20;99.90
51902;DHT22;37929;53.218;6.548;2023-03-14T02:18:52;10.20;99.90
51902;DHT22;37929;53.218;6.548;2023-03-14T02:21:26;10.20;99.90
51902;DHT22;37929;53.218;6.548;2023-03-14T02:26:42;10.10;99.90
51902;DHT22;37929;53.218;6.548;2023-03-14T02:29:09;10.00;99.90
51902;DHT22;37929;53.218;6.548;2023-03-14T02:31:35;10.00;99.90
51902;DHT22;37929;53.218;6.548;2023-03-14T02:34:01;10.00;99.90
51902;DHT22;37929;53.218;6.548;2023-03-14T02:36:28;10.00;99.90
51902;DHT22;37929;53.218;6.548;2023-03-14T02:39:21;9.90;99.90
51902;DHT22;37929;53.218;6.548;2023-03-14T02:41:49;9.90;99.90
51902;DHT22;37929;53.218;6.548;2023-03-14T02:44:15;9.90;99.90
51902;DHT22;37929;53.218;6.548;2023-03-14T02:46:41;9.90;99.90
51902;DHT22;37929;53.218;6.548;2023-03-14T02:49:09;9.80;99.90
51902;DHT22;37929;53.218;6.548;2023-03-14T02:51:36;9.40;99.90
51902;DHT22;37929;53.218;6.548;2023-03-14T02:54:02;9.70;99.90
51902;DHT22;37929;53.218;6.548;2023-03-14T02:56:28;9.70;99.90
51902;DHT22;37929;53.218;6.548;2023-03-14T02:58:54;9.70;99.90
51902;DHT22;37929;53.218;6.548;2023-03-14T03:01:20;9.60;99.90
51902;DHT22;37929;53.218;6.548;2023-03-14T03:03:46;9.60;99.90
51902;DHT22;37929;53.218;6.548;2023-03-14T03:06:12;9.60;99.90
51902;DHT22;37929;53.218;6.548;2023-03-14T03:08:38;9.60;99.90
51902;DHT22;37929;53.218;6.548;2023-03-14T03:11:05;9.50;99.90
51902;DHT22;37929;53.218;6.548;2023-03-14T03:13:31;9.40;99.90
51902;DHT22;37929;53.218;6.548;2023-03-14T03:15:57;9.30;99.90
51902;DHT22;37929;53.218;6.548;2023-03-14T03:18:23;9.30;99.90
51902;DHT22;37929;53.218;6.548;2023-03-14T03:20:49;9.30;99.90
51902;DHT22;37929;53.218;6.548;2023-03-14T03:23:14;9.20;99.90
51902;DHT22;37929;53.218;6.548;2023-03-14T03:25:40;9.20;99.90
51902;DHT22;37929;53.218;6.548;2023-03-14T03:28:06;9.10;99.90
51902;DHT22;37929;53.218;6.548;2023-03-14T03:30:40;9.00;99.90
51902;DHT22;37929;53.218;6.548;2023-03-14T03:33:07;9.00;99.90
51902;DHT22;37929;53.218;6.548;2023-03-14T03:35:33;8.90;99.90
51902;DHT22;37929;53.218;6.548;2023-03-14T03:37:58;8.90;99.90
51902;DHT22;37929;53.218;6.548;2023-03-14T03:40:24;8.90;99.90
51902;DHT22;37929;53.218;6.548;2023-03-14T03:42:51;8.90;99.90
51902;DHT22;37929;53.218;6.548;2023-03-14T03:45:16;8.90;99.90
51902;DHT22;37929;53.218;6.548;2023-03-14T03:47:42;8.90;99.90
51902;DHT22;37929;53.218;6.548;2023-03-14T03:50:08;8.90;99.90
51902;DHT22;37929;53.218;6.548;2023-03-14T03:52:34;8.90;99.90
51902;DHT22;37929;53.218;6.548;2023-03-14T03:55:00;8.90;99.90
51902;DHT22;37929;53.218;6.548;2023-03-14T03:57:26;9.00;99.90
51902;DHT22;37929;53.218;6.548;2023-03-14T03:59:51;8.90;99.90
51902;DHT22;37929;53.218;6.548;2023-03-14T04:02:17;9.00;99.90
51902;DHT22;37929;53.218;6.548;2023-03-14T04:04:44;9.00;99.90
51902;DHT22;37929;53.218;6.548;2023-03-14T04:07:10;8.90;99.90
51902;DHT22;37929;53.218;6.548;2023-03-14T04:09:38;9.00;99.90
51902;DHT22;37929;53.218;6.548;2023-03-14T04:12:07;9.00;99.90
51902;DHT22;37929;53.218;6.548;2023-03-14T04:14:33;9.00;99.90
51902;DHT22;37929;53.218;6.548;2023-03-14T04:16:59;9.00;99.90
51902;DHT22;37929;53.218;6.548;2023-03-14T04:19:24;9.10;99.90
51902;DHT22;37929;53.218;6.548;2023-03-14T04:21:50;9.10;99.90
51902;DHT22;37929;53.218;6.548;2023-03-14T04:24:16;9.00;99.90
51902;DHT22;37929;53.218;6.548;2023-03-14T04:26:41;9.00;99.90
51902;DHT22;37929;53.218;6.548;2023-03-14T04:29:07;9.10;99.90
51902;DHT22;37929;53.218;6.548;2023-03-14T04:31:33;9.00;99.90
51902;DHT22;37929;53.218;6.548;2023-03-14T04:33:59;9.00;99.90
51902;DHT22;37929;53.218;6.548;2023-03-14T04:36:24;9.00;99.90
51902;DHT22;37929;53.218;6.548;2023-03-14T04:38:50;8.90;99.90
51902;DHT22;37929;53.218;6.548;2023-03-14T04:41:16;8.90;99.90
51902;DHT22;37929;53.218;6.548;2023-03-14T04:43:42;8.90;99.90
51902;DHT22;37929;53.218;6.548;2023-03-14T04:46:07;8.90;99.90
51902;DHT22;37929;53.218;6.548;2023-03-14T04:48:33;8.80;99.90
51902;DHT22;37929;53.218;6.548;2023-03-14T04:50:59;8.80;99.90
51902;DHT22;37929;53.218;6.548;2023-03-14T04:53:25;8.80;99.90
51902;DHT22;37929;53.218;6.548;2023-03-14T04:55:52;8.80;99.90
51902;DHT22;37929;53.218;6.548;2023-03-14T04:58:19;8.70;99.90
51902;DHT22;37929;53.218;6.548;2023-03-14T05:00:46;8.70;99.90
51902;DHT22;37929;53.218;6.548;2023-03-14T05:03:11;8.70;99.90
51902;DHT22;37929;53.218;6.548;2023-03-14T05:05:37;8.70;99.90
51902;DHT22;37929;53.218;6.548;2023-03-14T05:08:03;8.70;99.90
51902;DHT22;37929;53.218;6.548;2023-03-14T05:10:29;8.70;99.90
51902;DHT22;37929;53.218;6.548;2023-03-14T05:12:55;8.70;99.90
51902;DHT22;37929;53.218;6.548;2023-03-14T05:15:21;8.70;99.90
51902;DHT22;37929;53.218;6.548;2023-03-14T05:17:47;8.60;99.90
51902;DHT22;37929;53.218;6.548;2023-03-14T05:20:14;8.60;99.90
51902;DHT22;37929;53.218;6.548;2023-03-14T05:22:41;8.60;99.90
51902;DHT22;37929;53.218;6.548;2023-03-14T05:25:07;8.60;99.90
51902;DHT22;37929;53.218;6.548;2023-03-14T05:27:33;8.50;99.90
51902;DHT22;37929;53.218;6.548;2023-03-14T05:29:59;8.50;99.90
51902;DHT22;37929;53.218;6.548;2023-03-14T05:32:25;8.50;99.90
51902;DHT22;37929;53.218;6.548;2023-03-14T05:34:51;8.50;99.90
51902;DHT22;37929;53.218;6.548;2023-03-14T05:37:16;8.50;99.90
51902;DHT22;37929;53.218;6.548;2023-03-14T05:39:42;8.50;99.90
51902;DHT22;37929;53.218;6.548;2023-03-14T05:42:08;8.40;99.90
51902;DHT22;37929;53.218;6.548;2023-03-14T05:44:34;8.50;99.90
51902;DHT22;37929;53.218;6.548;2023-03-14T05:46:59;8.40;99.90
51902;DHT22;37929;53.218;6.548;2023-03-14T05:49:25;8.40;99.90
51902;DHT22;37929;53.218;6.548;2023-03-14T05:51:51;8.40;99.90
51902;DHT22;37929;53.218;6.548;2023-03-14T05:54:17;8.40;99.90
51902;DHT22;37929;53.218;6.548;2023-03-14T05:56:43;8.40;99.90
51902;DHT22;37929;53.218;6.548;2023-03-14T05:59:09;8.50;99.90
51902;DHT22;37929;53.218;6.548;2023-03-14T06:01:35;8.50;99.90
51902;DHT22;37929;53.218;6.548;2023-03-14T06:04:01;8.50;99.90
51902;DHT22;37929;53.218;6.548;2023-03-14T06:06:26;8.50;99.90
51902;DHT22;37929;53.218;6.548;2023-03-14T06:08:52;8.50;99.90
51902;DHT22;37929;53.218;6.548;2023-03-14T06:11:18;8.40;99.90
51902;DHT22;37929;53.218;6.548;2023-03-14T06:13:44;8.50;99.90
51902;DHT22;37929;53.218;6.548;2023-03-14T06:16:09;8.40;99.90
51902;DHT22;37929;53.218;6.548;2023-03-14T06:18:35;8.40;99.90
51902;DHT22;37929;53.218;6.548;2023-03-14T06:21:01;8.40;99.90
51902;DHT22;37929;53.218;6.548;2023-03-14T06:23:27;8.40;99.90
51902;DHT22;37929;53.218;6.548;2023-03-14T06:25:52;8.40;99.90
51902;DHT22;37929;53.218;6.548;2023-03-14T06:28:18;8.40;99.90
51902;DHT22;37929;53.218;6.548;2023-03-14T06:30:44;8.40;99.90
51902;DHT22;37929;53.218;6.548;2023-03-14T06:33:09;8.50;99.90
51902;DHT22;37929;53.218;6.548;2023-03-14T06:35:35;8.00;99.90
51902;DHT22;37929;53.218;6.548;2023-03-14T06:38:01;7.80;99.90
51902;DHT22;37929;53.218;6.548;2023-03-14T06:40:27;7.60;99.90
51902;DHT22;37929;53.218;6.548;2023-03-14T06:42:53;7.40;99.90
51902;DHT22;37929;53.218;6.548;2023-03-14T06:45:19;7.30;99.90
51902;DHT22;37929;53.218;6.548;2023-03-14T06:47:44;7.20;99.90
51902;DHT22;37929;53.218;6.548;2023-03-14T06:50:10;7.10;99.90
51902;DHT22;37929;53.218;6.548;2023-03-14T06:52:37;7.00;99.90
51902;DHT22;37929;53.218;6.548;2023-03-14T06:55:03;6.90;99.90
51902;DHT22;37929;53.218;6.548;2023-03-14T06:57:29;6.70;99.90
51902;DHT22;37929;53.218;6.548;2023-03-14T06:59:54;6.60;99.90
51902;DHT22;37929;53.218;6.548;2023-03-14T07:02:20;6.50;99.90
51902;DHT22;37929;53.218;6.548;2023-03-14T07:04:47;6.40;99.90
51902;DHT22;37929;53.218;6.548;2023-03-14T07:07:13;6.30;99.90
51902;DHT22;37929;53.218;6.548;2023-03-14T07:09:38;6.20;99.90
51902;DHT22;37929;53.218;6.548;2023-03-14T07:12:05;6.10;99.90
51902;DHT22;37929;53.218;6.548;2023-03-14T07:14:31;5.90;99.90
51902;DHT22;37929;53.218;6.548;2023-03-14T07:16:57;5.80;99.90
51902;DHT22;37929;53.218;6.548;2023-03-14T07:19:23;6.00;99.90
51902;DHT22;37929;53.218;6.548;2023-03-14T07:21:49;5.70;99.90
51902;DHT22;37929;53.218;6.548;2023-03-14T07:24:14;5.60;99.90
51902;DHT22;37929;53.218;6.548;2023-03-14T07:26:40;5.60;99.90
51902;DHT22;37929;53.218;6.548;2023-03-14T07:29:06;5.60;99.90
51902;DHT22;37929;53.218;6.548;2023-03-14T07:31:31;5.80;99.90
51902;DHT22;37929;53.218;6.548;2023-03-14T07:33:57;5.60;99.90
51902;DHT22;37929;53.218;6.548;2023-03-14T07:36:23;5.40;99.90
51902;DHT22;37929;53.218;6.548;2023-03-14T07:38:49;5.50;99.90
51902;DHT22;37929;53.218;6.548;2023-03-14T07:41:15;5.30;99.90
51902;DHT22;37929;53.218;6.548;2023-03-14T07:43:41;5.30;99.90
51902;DHT22;37929;53.218;6.548;2023-03-14T07:46:07;5.20;99.90
51902;DHT22;37929;53.218;6.548;2023-03-14T07:48:33;5.20;99.90
51902;DHT22;37929;53.218;6.548;2023-03-14T07:50:59;5.30;99.90
51902;DHT22;37929;53.218;6.548;2023-03-14T07:53:25;5.20;99.90
51902;DHT22;37929;53.218;6.548;2023-03-14T07:55:52;5.20;99.90
51902;DHT22;37929;53.218;6.548;2023-03-14T07:58:19;5.30;99.90
51902;DHT22;37929;53.218;6.548;2023-03-14T08:00:45;5.20;99.90
51902;DHT22;37929;53.218;6.548;2023-03-14T08:03:10;5.20;99.90
51902;DHT22;37929;53.218;6.548;2023-03-14T08:05:37;5.20;99.90
51902;DHT22;37929;53.218;6.548;2023-03-14T08:08:03;5.20;99.90
51902;DHT22;37929;53.218;6.548;2023-03-14T08:10:29;5.20;99.90
51902;DHT22;37929;53.218;6.548;2023-03-14T08:12:57;5.30;99.90
51902;DHT22;37929;53.218;6.548;2023-03-14T08:15:24;5.30;99.90
51902;DHT22;37929;53.218;6.548;2023-03-14T08:17:50;5.40;99.90
51902;DHT22;37929;53.218;6.548;2023-03-14T08:20:17;5.50;99.90
51902;DHT22;37929;53.218;6.548;2023-03-14T08:22:44;5.60;99.90
51902;DHT22;37929;53.218;6.548;2023-03-14T08:25:10;5.60;99.90
51902;DHT22;37929;53.218;6.548;2023-03-14T08:27:36;5.70;99.90
51902;DHT22;37929;53.218;6.548;2023-03-14T08:30:05;5.70;99.90
51902;DHT22;37929;53.218;6.548;2023-03-14T08:32:31;5.70;99.90
51902;DHT22;37929;53.218;6.548;2023-03-14T08:34:56;5.70;99.90
51902;DHT22;37929;53.218;6.548;2023-03-14T08:37:22;6.10;99.90
51902;DHT22;37929;53.218;6.548;2023-03-14T08:39:50;5.80;99.90
51902;DHT22;37929;53.218;6.548;2023-03-14T08:42:16;5.90;99.90
51902;DHT22;37929;53.218;6.548;2023-03-14T08:44:42;6.50;99.90
51902;DHT22;37929;53.218;6.548;2023-03-14T08:47:08;6.60;99.90
51902;DHT22;37929;53.218;6.548;2023-03-14T08:49:33;6.00;99.90
51902;DHT22;37929;53.218;6.548;2023-03-14T08:52:02;6.20;99.90
51902;DHT22;37929;53.218;6.548;2023-03-14T08:54:29;6.00;99.90
51902;DHT22;37929;53.218;6.548;2023-03-14T08:56:55;6.10;99.90
51902;DHT22;37929;53.218;6.548;2023-03-14T08:59:21;6.10;99.90
51902;DHT22;37929;53.218;6.548;2023-03-14T09:01:46;6.20;99.90
51902;DHT22;37929;53.218;6.548;2023-03-14T09:04:12;6.50;99.90
51902;DHT22;37929;53.218;6.548;2023-03-14T09:06:39;6.30;99.90
51902;DHT22;37929;53.218;6.548;2023-03-14T09:09:05;6.40;99.90
51902;DHT22;37929;53.218;6.548;2023-03-14T09:11:31;6.50;99.90
51902;DHT22;37929;53.218;6.548;2023-03-14T09:13:57;6.70;99.90
51902;DHT22;37929;53.218;6.548;2023-03-14T09:16:24;6.90;99.90
51902;DHT22;37929;53.218;6.548;2023-03-14T09:18:50;7.00;99.90
51902;DHT22;37929;53.218;6.548;2023-03-14T09:21:18;7.10;99.90
51902;DHT22;37929;53.218;6.548;2023-03-14T09:23:44;7.10;99.90
51902;DHT22;37929;53.218;6.548;2023-03-14T09:26:11;7.00;99.90
51902;DHT22;37929;53.218;6.548;2023-03-14T09:28:36;6.90;99.90
51902;DHT22;37929;53.218;6.548;2023-03-14T09:31:09;6.80;99.90
51902;DHT22;37929;53.218;6.548;2023-03-14T09:33:36;7.10;99.90
51902;DHT22;37929;53.218;6.548;2023-03-14T09:36:02;6.60;99.90
51902;DHT22;37929;53.218;6.548;2023-03-14T09:38:29;6.60;99.90
51902;DHT22;37929;53.218;6.548;2023-03-14T09:40:55;6.70;99.90
51902;DHT22;37929;53.218;6.548;2023-03-14T09:43:24;6.40;99.90
51902;DHT22;37929;53.218;6.548;2023-03-14T09:45:51;6.80;99.90
51902;DHT22;37929;53.218;6.548;2023-03-14T09:48:24;6.30;99.90
51902;DHT22;37929;53.218;6.548;2023-03-14T09:50:58;6.20;99.90
51902;DHT22;37929;53.218;6.548;2023-03-14T09:53:51;6.20;99.90
51902;DHT22;37929;53.218;6.548;2023-03-14T09:56:26;6.20;99.90
51902;DHT22;37929;53.218;6.548;2023-03-14T09:58:58;6.20;99.90
51902;DHT22;37929;53.218;6.548;2023-03-14T10:01:34;6.20;99.90
51902;DHT22;37929;53.218;6.548;2023-03-14T10:04:04;6.20;99.90
51902;DHT22;37929;53.218;6.548;2023-03-14T10:06:31;6.10;99.90
51902;DHT22;37929;53.218;6.548;2023-03-14T10:08:57;6.10;99.90
51902;DHT22;37929;53.218;6.548;2023-03-14T10:11:24;6.10;99.90
51902;DHT22;37929;53.218;6.548;2023-03-14T10:14:08;6.10;99.90
51902;DHT22;37929;53.218;6.548;2023-03-14T10:16:37;6.10;99.90
51902;DHT22;37929;53.218;6.548;2023-03-14T10:19:10;6.20;99.90
51902;DHT22;37929;53.218;6.548;2023-03-14T10:21:41;6.20;99.90
51902;DHT22;37929;53.218;6.548;2023-03-14T10:24:28;6.60;99.90
51902;DHT22;37929;53.218;6.548;2023-03-14T10:27:02;6.30;99.90
51902;DHT22;37929;53.218;6.548;2023-03-14T10:29:34;6.30;99.90
51902;DHT22;37929;53.218;6.548;2023-03-14T10:32:05;6.30;99.90
51902;DHT22;37929;53.218;6.548;2023-03-14T10:34:35;6.30;99.90
51902;DHT22;37929;53.218;6.548;2023-03-14T10:37:23;6.40;99.90
51902;DHT22;37929;53.218;6.548;2023-03-14T10:39:53;6.40;99.90
51902;DHT22;37929;53.218;6.548;2023-03-14T10:42:24;6.40;99.90
51902;DHT22;37929;53.218;6.548;2023-03-14T10:45:04;6.40;99.90
51902;DHT22;37929;53.218;6.548;2023-03-14T10:47:33;6.40;99.90
51902;DHT22;37929;53.218;6.548;2023-03-14T10:50:24;6.40;99.90
51902;DHT22;37929;53.218;6.548;2023-03-14T10:52:53;6.60;99.90
51902;DHT22;37929;53.218;6.548;2023-03-14T10:55:18;6.50;99.90
51902;DHT22;37929;53.218;6.548;2023-03-14T10:57:44;6.50;99.90
51902;DHT22;37929;53.218;6.548;2023-03-14T11:00:16;6.50;99.90
51902;DHT22;37929;53.218;6.548;2023-03-14T11:03:11;6.60;99.90
51902;DHT22;37929;53.218;6.548;2023-03-14T11:05:43;6.60;99.90
51902;DHT22;37929;53.218;6.548;2023-03-14T11:11:18;6.40;99.90
51902;DHT22;37929;53.218;6.548;2023-03-14T11:16:47;6.50;99.90
51902;DHT22;37929;53.218;6.548;2023-03-14T11:19:27;6.50;99.90
51902;DHT22;37929;53.218;6.548;2023-03-14T11:27:28;6.40;99.90
51902;DHT22;37929;53.218;6.548;2023-03-14T11:32:46;6.50;99.90
51902;DHT22;37929;53.218;6.548;2023-03-14T11:37:47;6.90;99.90
51902;DHT22;37929;53.218;6.548;2023-03-14T11:42:48;6.80;99.90
51902;DHT22;37929;53.218;6.548;2023-03-14T11:45:19;6.60;99.90
51902;DHT22;37929;53.218;6.548;2023-03-14T11:48:34;6.50;99.90
51902;DHT22;37929;53.218;6.548;2023-03-14T11:50:35;6.60;99.90
51902;DHT22;37929;53.218;6.548;2023-03-14T11:53:07;6.70;99.90
51902;DHT22;37929;53.218;6.548;2023-03-14T11:55:36;6.70;99.90
51902;DHT22;37929;53.218;6.548;2023-03-14T11:58:14;7.30;99.90
51902;DHT22;37929;53.218;6.548;2023-03-14T12:00:43;6.90;99.90
51902;DHT22;37929;53.218;6.548;2023-03-14T12:03:36;7.00;99.90
51902;DHT22;37929;53.218;6.548;2023-03-14T12:09:00;7.00;99.90
51902;DHT22;37929;53.218;6.548;2023-03-14T12:14:33;6.80;99.90
51902;DHT22;37929;53.218;6.548;2023-03-14T12:17:06;6.80;99.90
51902;DHT22;37929;53.218;6.548;2023-03-14T12:19:38;6.80;99.90
51902;DHT22;37929;53.218;6.548;2023-03-14T12:22:27;6.70;99.90
51902;DHT22;37929;53.218;6.548;2023-03-14T12:25:21;6.60;99.90
51902;DHT22;37929;53.218;6.548;2023-03-14T12:28:32;6.60;99.90
51902;DHT22;37929;53.218;6.548;2023-03-14T12:35:42;6.80;99.90
51902;DHT22;37929;53.218;6.548;2023-03-14T12:41:21;6.60;99.90
51902;DHT22;37929;53.218;6.548;2023-03-14T12:43:48;6.50;99.90
51902;DHT22;37929;53.218;6.548;2023-03-14T12:51:44;6.50;99.90
51902;DHT22;37929;53.218;6.548;2023-03-14T12:57:09;6.60;99.90
51902;DHT22;37929;53.218;6.548;2023-03-14T12:59:51;6.50;99.90
51902;DHT22;37929;53.218;6.548;2023-03-14T13:02:40;6.40;99.90
51902;DHT22;37929;53.218;6.548;2023-03-14T13:05:22;6.40;99.90
51902;DHT22;37929;53.218;6.548;2023-03-14T13:15:39;6.40;99.90
51902;DHT22;37929;53.218;6.548;2023-03-14T13:18:26;6.60;99.90
51902;DHT22;37929;53.218;6.548;2023-03-14T13:20:55;6.80;99.90
51902;DHT22;37929;53.218;6.548;2023-03-14T13:23:33;6.90;99.90
51902;DHT22;37929;53.218;6.548;2023-03-14T13:26:00;7.00;99.90
51902;DHT22;37929;53.218;6.548;2023-03-14T13:28:27;7.00;99.90
51902;DHT22;37929;53.218;6.548;2023-03-14T13:30:58;7.00;99.90
51902;DHT22;37929;53.218;6.548;2023-03-14T13:33:24;7.20;99.90
51902;DHT22;37929;53.218;6.548;2023-03-14T13:38:27;7.20;99.90
51902;DHT22;37929;53.218;6.548;2023-03-14T13:41:00;7.10;99.90
51902;DHT22;37929;53.218;6.548;2023-03-14T13:43:39;7.00;99.90
51902;DHT22;37929;53.218;6.548;2023-03-14T13:46:21;7.00;99.90
51902;DHT22;37929;53.218;6.548;2023-03-14T13:48:59;7.00;99.90
51902;DHT22;37929;53.218;6.548;2023-03-14T13:51:27;7.10;99.90
51902;DHT22;37929;53.218;6.548;2023-03-14T13:53:57;7.30;99.90
51902;DHT22;37929;53.218;6.548;2023-03-14T13:56:27;7.40;99.90
51902;DHT22;37929;53.218;6.548;2023-03-14T13:58:54;7.40;99.90
51902;DHT22;37929;53.218;6.548;2023-03-14T14:03:48;7.30;99.90
51902;DHT22;37929;53.218;6.548;2023-03-14T14:06:39;7.20;99.90
51902;DHT22;37929;53.218;6.548;2023-03-14T14:09:16;7.10;99.90
51902;DHT22;37929;53.218;6.548;2023-03-14T14:12:03;7.00;99.90
51902;DHT22;37929;53.218;6.548;2023-03-14T14:14:38;7.00;99.90
51902;DHT22;37929;53.218;6.548;2023-03-14T14:17:09;6.90;99.90
51902;DHT22;37929;53.218;6.548;2023-03-14T14:19:37;6.90;99.90
51902;DHT22;37929;53.218;6.548;2023-03-14T14:22:03;6.90;99.90
51902;DHT22;37929;53.218;6.548;2023-03-14T14:24:31;6.90;99.90
51902;DHT22;37929;53.218;6.548;2023-03-14T14:27:18;6.90;99.90
51902;DHT22;37929;53.218;6.548;2023-03-14T14:29:58;6.90;99.90
51902;DHT22;37929;53.218;6.548;2023-03-14T14:32:24;6.90;99.90
51902;DHT22;37929;53.218;6.548;2023-03-14T14:34:57;6.90;99.90
51902;DHT22;37929;53.218;6.548;2023-03-14T14:37:28;7.00;99.90
51902;DHT22;37929;53.218;6.548;2023-03-14T14:39:57;7.00;99.90
51902;DHT22;37929;53.218;6.548;2023-03-14T14:42:31;7.00;99.90
51902;DHT22;37929;53.218;6.548;2023-03-14T14:44:57;7.00;99.90
51902;DHT22;37929;53.218;6.548;2023-03-14T14:47:25;7.00;99.90
51902;DHT22;37929;53.218;6.548;2023-03-14T14:49:54;6.90;99.90
51902;DHT22;37929;53.218;6.548;2023-03-14T14:52:30;6.70;99.90
51902;DHT22;37929;53.218;6.548;2023-03-14T14:55:00;6.60;99.90
51902;DHT22;37929;53.218;6.548;2023-03-14T14:57:37;6.70;99.90
51902;DHT22;37929;53.218;6.548;2023-03-14T15:00:26;7.10;99.90
51902;DHT22;37929;53.218;6.548;2023-03-14T15:02:55;7.60;99.90
51902;DHT22;37929;53.218;6.548;2023-03-14T15:05:28;8.00;99.90
51902;DHT22;37929;53.218;6.548;2023-03-14T15:07:56;8.30;99.90
51902;DHT22;37929;53.218;6.548;2023-03-14T15:10:24;8.40;99.90
51902;DHT22;37929;53.218;6.548;2023-03-14T15:12:50;8.20;99.90
51902;DHT22;37929;53.218;6.548;2023-03-14T15:15:17;8.20;99.90
51902;DHT22;37929;53.218;6.548;2023-03-14T15:17:43;8.00;99.90
51902;DHT22;37929;53.218;6.548;2023-03-14T15:20:15;7.70;99.90
51902;DHT22;37929;53.218;6.548;2023-03-14T15:22:41;7.50;99.90
51902;DHT22;37929;53.218;6.548;2023-03-14T15:25:08;7.30;99.90
51902;DHT22;37929;53.218;6.548;2023-03-14T15:27:36;7.10;99.90
51902;DHT22;37929;53.218;6.548;2023-03-14T15:30:02;7.00;99.90
51902;DHT22;37929;53.218;6.548;2023-03-14T15:32:31;6.90;99.90
51902;DHT22;37929;53.218;6.548;2023-03-14T15:34:57;6.90;99.90
51902;DHT22;37929;53.218;6.548;2023-03-14T15:37:25;6.80;99.90
51902;DHT22;37929;53.218;6.548;2023-03-14T15:39:51;6.80;99.90
51902;DHT22;37929;53.218;6.548;2023-03-14T15:42:16;6.80;99.90
51902;DHT22;37929;53.218;6.548;2023-03-14T15:44:42;6.70;99.90
51902;DHT22;37929;53.218;6.548;2023-03-14T15:47:10;6.60;99.90
51902;DHT22;37929;53.218;6.548;2023-03-14T15:49:36;6.60;99.90
51902;DHT22;37929;53.218;6.548;2023-03-14T15:52:05;6.60;99.90
51902;DHT22;37929;53.218;6.548;2023-03-14T15:54:33;6.70;99.90
51902;DHT22;37929;53.218;6.548;2023-03-14T15:56:59;6.60;99.90
51902;DHT22;37929;53.218;6.548;2023-03-14T15:59:25;6.60;99.90
51902;DHT22;37929;53.218;6.548;2023-03-14T16:01:51;6.50;99.90
51902;DHT22;37929;53.218;6.548;2023-03-14T16:04:17;6.40;99.90
51902;DHT22;37929;53.218;6.548;2023-03-14T16:06:43;6.30;99.90
51902;DHT22;37929;53.218;6.548;2023-03-14T16:09:13;6.20;99.90
51902;DHT22;37929;53.218;6.548;2023-03-14T16:11:39;6.20;99.90
51902;DHT22;37929;53.218;6.548;2023-03-14T16:14:05;6.10;99.90
51902;DHT22;37929;53.218;6.548;2023-03-14T16:16:31;6.10;99.90
51902;DHT22;37929;53.218;6.548;2023-03-14T16:18:57;6.00;99.90
51902;DHT22;37929;53.218;6.548;2023-03-14T16:21:23;6.00;99.90
51902;DHT22;37929;53.218;6.548;2023-03-14T16:23:49;6.00;99.90
51902;DHT22;37929;53.218;6.548;2023-03-14T16:26:17;5.90;99.90
51902;DHT22;37929;53.218;6.548;2023-03-14T16:28:45;5.80;99.90
51902;DHT22;37929;53.218;6.548;2023-03-14T16:31:15;5.60;99.90
51902;DHT22;37929;53.218;6.548;2023-03-14T16:33:41;5.70;99.90
51902;DHT22;37929;53.218;6.548;2023-03-14T16:36:09;5.90;99.90
51902;DHT22;37929;53.218;6.548;2023-03-14T16:38:38;5.40;99.90
51902;DHT22;37929;53.218;6.548;2023-03-14T16:41:05;5.40;99.90
51902;DHT22;37929;53.218;6.548;2023-03-14T16:43:31;5.40;99.90
51902;DHT22;37929;53.218;6.548;2023-03-14T16:46:05;5.40;99.90
51902;DHT22;37929;53.218;6.548;2023-03-14T16:48:31;5.40;99.90
51902;DHT22;37929;53.218;6.548;2023-03-14T16:50:57;5.40;99.90
51902;DHT22;37929;53.218;6.548;2023-03-14T16:53:23;5.40;99.90
51902;DHT22;37929;53.218;6.548;2023-03-14T16:55:50;5.40;99.90
51902;DHT22;37929;53.218;6.548;2023-03-14T16:58:16;5.40;99.90